sensor_id;sensor_type;location;lat;lon;timestamp;temperature;humidity
68378;DHT22;55322;48.146;11.516;2023-07-13T00:02:14;18.41;95.14
68378;DHT22;55322;48.146;11.516;2023-07-13T00:04:40;18.31;95.05
68378;DHT22;55322;48.146;11.516;2023-07-13T00:07:05;18.27;95.34
68378;DHT22;55322;48.146;11.516;2023-07-13T00:09:30;18.26;95.02
68378;DHT22;55322;48.146;11.516;2023-07-13T00:11:57;18.30;95.38
68378;DHT22;55322;48.146;11.516;2023-07-13T00:14:23;18.24;95.35
68378;DHT22;55322;48.146;11.516;2023-07-13T00:16:49;18.26;94.97
68378;DHT22;55322;48.146;11.516;2023-07-13T00:19:14;18.30;94.93
68378;DHT22;55322;48.146;11.516;2023-07-13T00:21:41;18.34;95.55
68378;DHT22;55322;48.146;11.516;2023-07-13T00:24:07;18.37;94.66
68378;DHT22;55322;48.146;11.516;2023-07-13T00:26:34;18.36;94.76
68378;DHT22;55322;48.146;11.516;2023-07-13T00:28:59;18.31;94.79
68378;DHT22;55322;48.146;11.516;2023-07-13T00:31:24;18.30;95.23
68378;DHT22;55322;48.146;11.516;2023-07-13T00:33:50;18.26;94.91
68378;DHT22;55322;48.146;11.516;2023-07-13T00:36:16;18.36;94.76
68378;DHT22;55322;48.146;11.516;2023-07-13T00:38:42;18.30;94.99
68378;DHT22;55322;48.146;11.516;2023-07-13T00:41:08;18.27;94.18
68378;DHT22;55322;48.146;11.516;2023-07-13T00:43:33;18.24;94.86
68378;DHT22;55322;48.146;11.516;2023-07-13T00:48:31;18.29;95.06
68378;DHT22;55322;48.146;11.516;2023-07-13T00:50:58;18.29;94.72
68378;DHT22;55322;48.146;11.516;2023-07-13T00:53:27;18.24;94.77
68378;DHT22;55322;48.146;11.516;2023-07-13T00:55:55;18.23;95.04
68378;DHT22;55322;48.146;11.516;2023-07-13T00:58:22;18.27;95.05
68378;DHT22;55322;48.146;11.516;2023-07-13T01:00:48;18.24;94.72
68378;DHT22;55322;48.146;11.516;2023-07-13T01:03:15;18.24;95.01
68378;DHT22;55322;48.146;11.516;2023-07-13T01:05:40;18.16;94.27
68378;DHT22;55322;48.146;11.516;2023-07-13T01:08:06;18.20;94.67
68378;DHT22;55322;48.146;11.516;2023-07-13T01:10:32;18.23;94.95
68378;DHT22;55322;48.146;11.516;2023-07-13T01:13:05;18.18;94.35
68378;DHT22;55322;48.146;11.516;2023-07-13T01:15:40;18.17;94.69
68378;DHT22;55322;48.146;11.516;2023-07-13T01:18:10;18.14;95.12
68378;DHT22;55322;48.146;11.516;2023-07-13T01:20:36;18.10;95.13
68378;DHT22;55322;48.146;11.516;2023-07-13T01:23:07;18.10;95.18
68378;DHT22;55322;48.146;11.516;2023-07-13T01:25:34;18.01;95.37
68378;DHT22;55322;48.146;11.516;2023-07-13T01:27:59;18.07;95.19
68378;DHT22;55322;48.146;11.516;2023-07-13T01:30:25;18.16;94.43
68378;DHT22;55322;48.146;11.516;2023-07-13T01:32:50;18.10;95.15
68378;DHT22;55322;48.146;11.516;2023-07-13T01:35:15;18.11;95.24
68378;DHT22;55322;48.146;11.516;2023-07-13T01:37:41;18.20;94.41
68378;DHT22;55322;48.146;11.516;2023-07-13T01:40:07;18.20;94.58
68378;DHT22;55322;48.146;11.516;2023-07-13T01:42:33;18.10;95.14
68378;DHT22;55322;48.146;11.516;2023-07-13T01:44:59;18.03;95.55
68378;DHT22;55322;48.146;11.516;2023-07-13T01:47:24;17.94;95.73
68378;DHT22;55322;48.146;11.516;2023-07-13T01:49:51;17.97;95.78
68378;DHT22;55322;48.146;11.516;2023-07-13T01:52:17;17.91;95.97
68378;DHT22;55322;48.146;11.516;2023-07-13T01:54:42;17.85;96.26
68378;DHT22;55322;48.146;11.516;2023-07-13T01:57:07;17.86;96.47
68378;DHT22;55322;48.146;11.516;2023-07-13T01:59:33;17.89;96.43
68378;DHT22;55322;48.146;11.516;2023-07-13T02:01:58;17.89;96.53
68378;DHT22;55322;48.146;11.516;2023-07-13T02:04:23;17.93;96.56
68378;DHT22;55322;48.146;11.516;2023-07-13T02:06:49;17.91;96.53
68378;DHT22;55322;48.146;11.516;2023-07-13T02:09:14;17.87;96.59
68378;DHT22;55322;48.146;11.516;2023-07-13T02:11:39;17.90;96.48
68378;DHT22;55322;48.146;11.516;2023-07-13T02:14:05;17.82;96.31
68378;DHT22;55322;48.146;11.516;2023-07-13T02:16:30;17.85;96.50
68378;DHT22;55322;48.146;11.516;2023-07-13T02:18:56;17.85;96.62
68378;DHT22;55322;48.146;11.516;2023-07-13T02:21:22;17.78;96.75
68378;DHT22;55322;48.146;11.516;2023-07-13T02:23:49;17.78;96.67
68378;DHT22;55322;48.146;11.516;2023-07-13T02:26:14;17.80;96.73
68378;DHT22;55322;48.146;11.516;2023-07-13T02:28:39;17.79;96.68
68378;DHT22;55322;48.146;11.516;2023-07-13T02:31:10;17.75;96.98
68378;DHT22;55322;48.146;11.516;2023-07-13T02:33:36;17.78;97.03
68378;DHT22;55322;48.146;11.516;2023-07-13T02:36:02;17.76;96.98
68378;DHT22;55322;48.146;11.516;2023-07-13T02:38:27;17.80;97.15
68378;DHT22;55322;48.146;11.516;2023-07-13T02:40:53;17.83;97.14
68378;DHT22;55322;48.146;11.516;2023-07-13T02:43:18;17.89;97.21
68378;DHT22;55322;48.146;11.516;2023-07-13T02:45:44;17.91;97.27
68378;DHT22;55322;48.146;11.516;2023-07-13T02:48:09;17.96;97.21
68378;DHT22;55322;48.146;11.516;2023-07-13T02:50:35;18.01;97.20
68378;DHT22;55322;48.146;11.516;2023-07-13T02:53:00;17.96;96.80
68378;DHT22;55322;48.146;11.516;2023-07-13T02:55:25;17.96;96.78
68378;DHT22;55322;48.146;11.516;2023-07-13T02:57:51;17.89;96.34
68378;DHT22;55322;48.146;11.516;2023-07-13T03:00:16;17.82;96.03
68378;DHT22;55322;48.146;11.516;2023-07-13T03:02:42;17.79;95.91
68378;DHT22;55322;48.146;11.516;2023-07-13T03:05:07;17.78;96.24
68378;DHT22;55322;48.146;11.516;2023-07-13T03:07:35;17.66;95.30
68378;DHT22;55322;48.146;11.516;2023-07-13T03:10:01;17.63;95.43
68378;DHT22;55322;48.146;11.516;2023-07-13T03:12:27;17.59;95.86
68378;DHT22;55322;48.146;11.516;2023-07-13T03:14:52;17.56;96.07
68378;DHT22;55322;48.146;11.516;2023-07-13T03:17:17;17.52;96.18
68378;DHT22;55322;48.146;11.516;2023-07-13T03:19:43;17.50;96.01
68378;DHT22;55322;48.146;11.516;2023-07-13T03:22:09;17.50;96.02
68378;DHT22;55322;48.146;11.516;2023-07-13T03:24:34;17.42;95.77
68378;DHT22;55322;48.146;11.516;2023-07-13T03:27:03;17.34;95.47
68378;DHT22;55322;48.146;11.516;2023-07-13T03:29:28;17.26;95.73
68378;DHT22;55322;48.146;11.516;2023-07-13T03:31:54;17.24;95.73
68378;DHT22;55322;48.146;11.516;2023-07-13T03:34:19;17.24;95.98
68378;DHT22;55322;48.146;11.516;2023-07-13T03:36:44;17.22;95.97
68378;DHT22;55322;48.146;11.516;2023-07-13T03:39:10;17.24;96.13
68378;DHT22;55322;48.146;11.516;2023-07-13T03:41:35;17.19;96.22
68378;DHT22;55322;48.146;11.516;2023-07-13T03:44:01;17.18;96.10
68378;DHT22;55322;48.146;11.516;2023-07-13T03:46:26;17.15;96.21
68378;DHT22;55322;48.146;11.516;2023-07-13T03:48:52;17.19;96.10
68378;DHT22;55322;48.146;11.516;2023-07-13T03:51:17;17.21;96.28
68378;DHT22;55322;48.146;11.516;2023-07-13T03:53:44;17.16;96.11
68378;DHT22;55322;48.146;11.516;2023-07-13T03:56:10;17.19;95.52
68378;DHT22;55322;48.146;11.516;2023-07-13T03:58:40;17.16;95.90
68378;DHT22;55322;48.146;11.516;2023-07-13T04:01:07;17.05;95.87
68378;DHT22;55322;48.146;11.516;2023-07-13T04:03:33;17.01;95.88
68378;DHT22;55322;48.146;11.516;2023-07-13T04:06:00;16.92;95.68
68378;DHT22;55322;48.146;11.516;2023-07-13T04:08:31;16.92;95.48
68378;DHT22;55322;48.146;11.516;2023-07-13T04:10:57;17.00;95.07
68378;DHT22;55322;48.146;11.516;2023-07-13T04:13:23;16.98;95.30
68378;DHT22;55322;48.146;11.516;2023-07-13T04:15:49;16.98;95.27
68378;DHT22;55322;48.146;11.516;2023-07-13T04:18:14;16.92;95.85
68378;DHT22;55322;48.146;11.516;2023-07-13T04:20:39;16.84;95.79
68378;DHT22;55322;48.146;11.516;2023-07-13T04:23:05;16.91;96.04
68378;DHT22;55322;48.146;11.516;2023-07-13T04:25:30;16.89;95.91
68378;DHT22;55322;48.146;11.516;2023-07-13T04:27:55;16.91;96.13
68378;DHT22;55322;48.146;11.516;2023-07-13T04:30:21;16.92;96.02
68378;DHT22;55322;48.146;11.516;2023-07-13T04:32:47;16.94;96.15
68378;DHT22;55322;48.146;11.516;2023-07-13T04:35:12;16.95;96.41
68378;DHT22;55322;48.146;11.516;2023-07-13T04:37:39;16.95;96.25
68378;DHT22;55322;48.146;11.516;2023-07-13T04:40:05;16.96;96.20
68378;DHT22;55322;48.146;11.516;2023-07-13T04:42:31;17.01;96.53
68378;DHT22;55322;48.146;11.516;2023-07-13T04:44:56;17.04;96.27
68378;DHT22;55322;48.146;11.516;2023-07-13T04:47:21;17.03;96.25
68378;DHT22;55322;48.146;11.516;2023-07-13T04:49:47;17.07;96.14
68378;DHT22;55322;48.146;11.516;2023-07-13T04:52:12;17.01;95.85
68378;DHT22;55322;48.146;11.516;2023-07-13T04:54:38;17.07;96.10
68378;DHT22;55322;48.146;11.516;2023-07-13T04:57:04;17.03;95.96
68378;DHT22;55322;48.146;11.516;2023-07-13T04:59:31;16.96;96.02
68378;DHT22;55322;48.146;11.516;2023-07-13T05:01:57;17.01;95.86
68378;DHT22;55322;48.146;11.516;2023-07-13T05:04:22;17.04;96.25
68378;DHT22;55322;48.146;11.516;2023-07-13T05:06:47;17.01;96.22
68378;DHT22;55322;48.146;11.516;2023-07-13T05:09:13;17.08;96.40
68378;DHT22;55322;48.146;11.516;2023-07-13T05:11:38;17.07;96.52
68378;DHT22;55322;48.146;11.516;2023-07-13T05:14:04;17.05;96.55
68378;DHT22;55322;48.146;11.516;2023-07-13T05:16:29;17.01;96.38
68378;DHT22;55322;48.146;11.516;2023-07-13T05:18:55;16.89;96.45
68378;DHT22;55322;48.146;11.516;2023-07-13T05:21:20;16.85;96.60
68378;DHT22;55322;48.146;11.516;2023-07-13T05:23:47;16.92;96.77
68378;DHT22;55322;48.146;11.516;2023-07-13T05:26:12;16.85;96.45
68378;DHT22;55322;48.146;11.516;2023-07-13T05:28:38;16.75;96.37
68378;DHT22;55322;48.146;11.516;2023-07-13T05:31:04;16.77;96.58
68378;DHT22;55322;48.146;11.516;2023-07-13T05:33:30;16.68;96.89
68378;DHT22;55322;48.146;11.516;2023-07-13T05:35:55;16.71;96.98
68378;DHT22;55322;48.146;11.516;2023-07-13T05:38:21;16.68;96.85
68378;DHT22;55322;48.146;11.516;2023-07-13T05:40:46;16.73;97.21
68378;DHT22;55322;48.146;11.516;2023-07-13T05:43:13;16.74;97.28
68378;DHT22;55322;48.146;11.516;2023-07-13T05:45:38;16.88;97.23
68378;DHT22;55322;48.146;11.516;2023-07-13T05:48:04;16.95;97.36
68378;DHT22;55322;48.146;11.516;2023-07-13T05:50:29;17.12;97.25
68378;DHT22;55322;48.146;11.516;2023-07-13T05:52:54;17.26;97.17
68378;DHT22;55322;48.146;11.516;2023-07-13T05:55:20;17.38;96.75
68378;DHT22;55322;48.146;11.516;2023-07-13T05:57:46;17.42;96.30
68378;DHT22;55322;48.146;11.516;2023-07-13T06:00:12;17.52;96.25
68378;DHT22;55322;48.146;11.516;2023-07-13T06:02:37;17.56;96.03
68378;DHT22;55322;48.146;11.516;2023-07-13T06:05:03;17.63;96.07
68378;DHT22;55322;48.146;11.516;2023-07-13T06:07:28;17.62;96.08
68378;DHT22;55322;48.146;11.516;2023-07-13T06:09:54;17.55;95.73
68378;DHT22;55322;48.146;11.516;2023-07-13T06:12:19;17.59;95.57
68378;DHT22;55322;48.146;11.516;2023-07-13T06:14:44;17.62;95.70
68378;DHT22;55322;48.146;11.516;2023-07-13T06:17:10;17.76;95.75
68378;DHT22;55322;48.146;11.516;2023-07-13T06:19:35;17.85;95.68
68378;DHT22;55322;48.146;11.516;2023-07-13T06:22:00;17.91;95.25
68378;DHT22;55322;48.146;11.516;2023-07-13T06:24:26;18.01;94.78
68378;DHT22;55322;48.146;11.516;2023-07-13T06:26:51;18.04;95.03
68378;DHT22;55322;48.146;11.516;2023-07-13T06:29:17;18.10;94.85
68378;DHT22;55322;48.146;11.516;2023-07-13T06:31:42;18.18;94.75
68378;DHT22;55322;48.146;11.516;2023-07-13T06:34:07;18.17;94.59
68378;DHT22;55322;48.146;11.516;2023-07-13T06:36:33;18.21;95.01
68378;DHT22;55322;48.146;11.516;2023-07-13T06:38:58;18.17;94.90
68378;DHT22;55322;48.146;11.516;2023-07-13T06:41:23;18.09;94.46
68378;DHT22;55322;48.146;11.516;2023-07-13T06:43:51;17.99;93.99
68378;DHT22;55322;48.146;11.516;2023-07-13T06:46:17;17.96;93.50
68378;DHT22;55322;48.146;11.516;2023-07-13T06:48:42;17.82;94.12
68378;DHT22;55322;48.146;11.516;2023-07-13T06:51:07;17.68;94.42
68378;DHT22;55322;48.146;11.516;2023-07-13T06:53:33;17.72;94.41
68378;DHT22;55322;48.146;11.516;2023-07-13T06:55:58;17.73;94.33
68378;DHT22;55322;48.146;11.516;2023-07-13T06:58:23;17.80;93.61
68378;DHT22;55322;48.146;11.516;2023-07-13T07:00:51;17.75;93.77
68378;DHT22;55322;48.146;11.516;2023-07-13T07:03:16;17.73;94.25
68378;DHT22;55322;48.146;11.516;2023-07-13T07:05:42;17.82;94.61
68378;DHT22;55322;48.146;11.516;2023-07-13T07:08:07;17.80;94.45
68378;DHT22;55322;48.146;11.516;2023-07-13T07:10:33;17.86;94.58
68378;DHT22;55322;48.146;11.516;2023-07-13T07:12:58;17.93;95.15
68378;DHT22;55322;48.146;11.516;2023-07-13T07:15:24;17.96;94.75
68378;DHT22;55322;48.146;11.516;2023-07-13T07:17:49;17.91;93.24
68378;DHT22;55322;48.146;11.516;2023-07-13T07:20:14;17.85;92.22
68378;DHT22;55322;48.146;11.516;2023-07-13T07:22:40;17.73;92.28
68378;DHT22;55322;48.146;11.516;2023-07-13T07:25:05;17.73;92.82
68378;DHT22;55322;48.146;11.516;2023-07-13T07:27:31;17.75;93.12
68378;DHT22;55322;48.146;11.516;2023-07-13T07:29:57;17.78;93.54
68378;DHT22;55322;48.146;11.516;2023-07-13T07:32:23;17.73;92.96
68378;DHT22;55322;48.146;11.516;2023-07-13T07:34:48;17.78;93.07
68378;DHT22;55322;48.146;11.516;2023-07-13T07:37:14;17.86;94.05
68378;DHT22;55322;48.146;11.516;2023-07-13T07:39:39;17.87;92.37
68378;DHT22;55322;48.146;11.516;2023-07-13T07:42:05;17.85;92.14
68378;DHT22;55322;48.146;11.516;2023-07-13T07:44:31;17.93;92.60
68378;DHT22;55322;48.146;11.516;2023-07-13T07:46:56;17.91;92.65
68378;DHT22;55322;48.146;11.516;2023-07-13T07:49:22;18.00;92.70
68378;DHT22;55322;48.146;11.516;2023-07-13T07:51:47;17.89;92.56
68378;DHT22;55322;48.146;11.516;2023-07-13T07:54:12;17.82;93.53
68378;DHT22;55322;48.146;11.516;2023-07-13T07:56:38;17.79;93.62
68378;DHT22;55322;48.146;11.516;2023-07-13T07:59:03;17.61;92.52
68378;DHT22;55322;48.146;11.516;2023-07-13T08:01:29;17.63;93.37
68378;DHT22;55322;48.146;11.516;2023-07-13T08:03:54;17.61;92.30
68378;DHT22;55322;48.146;11.516;2023-07-13T08:06:20;17.62;90.45
68378;DHT22;55322;48.146;11.516;2023-07-13T08:08:45;17.61;91.45
68378;DHT22;55322;48.146;11.516;2023-07-13T08:11:10;17.49;91.56
68378;DHT22;55322;48.146;11.516;2023-07-13T08:13:37;17.42;90.82
68378;DHT22;55322;48.146;11.516;2023-07-13T08:16:04;17.28;91.77
68378;DHT22;55322;48.146;11.516;2023-07-13T08:18:30;17.24;92.29
68378;DHT22;55322;48.146;11.516;2023-07-13T08:20:56;17.22;92.85
68378;DHT22;55322;48.146;11.516;2023-07-13T08:23:22;17.24;92.11
68378;DHT22;55322;48.146;11.516;2023-07-13T08:25:52;17.10;91.88
68378;DHT22;55322;48.146;11.516;2023-07-13T08:28:19;16.98;92.11
68378;DHT22;55322;48.146;11.516;2023-07-13T08:30:45;16.80;92.16
68378;DHT22;55322;48.146;11.516;2023-07-13T08:33:14;16.87;93.09
68378;DHT22;55322;48.146;11.516;2023-07-13T08:35:39;16.75;92.09
68378;DHT22;55322;48.146;11.516;2023-07-13T08:38:04;16.80;93.16
68378;DHT22;55322;48.146;11.516;2023-07-13T08:40:30;16.78;93.02
68378;DHT22;55322;48.146;11.516;2023-07-13T08:42:57;16.78;91.96
68378;DHT22;55322;48.146;11.516;2023-07-13T08:45:34;16.81;91.49
68378;DHT22;55322;48.146;11.516;2023-07-13T08:48:09;16.98;92.68
68378;DHT22;55322;48.146;11.516;2023-07-13T08:50:40;17.00;91.15
68378;DHT22;55322;48.146;11.516;2023-07-13T08:53:13;17.08;91.65
68378;DHT22;55322;48.146;11.516;2023-07-13T08:55:38;17.12;92.84
68378;DHT22;55322;48.146;11.516;2023-07-13T08:58:15;17.12;91.64
68378;DHT22;55322;48.146;11.516;2023-07-13T09:00:52;17.00;90.97
68378;DHT22;55322;48.146;11.516;2023-07-13T09:03:22;16.92;91.23
68378;DHT22;55322;48.146;11.516;2023-07-13T09:05:53;16.77;87.82
68378;DHT22;55322;48.146;11.516;2023-07-13T09:13:48;16.71;90.47
68378;DHT22;55322;48.146;11.516;2023-07-13T09:16:17;16.70;90.38
68378;DHT22;55322;48.146;11.516;2023-07-13T09:18:50;16.75;91.13
68378;DHT22;55322;48.146;11.516;2023-07-13T09:21:22;16.84;88.62
68378;DHT22;55322;48.146;11.516;2023-07-13T09:23:52;16.95;89.17
68378;DHT22;55322;48.146;11.516;2023-07-13T09:26:23;17.05;87.92
68378;DHT22;55322;48.146;11.516;2023-07-13T09:28:51;17.11;88.26
68378;DHT22;55322;48.146;11.516;2023-07-13T09:31:32;17.19;89.41
68378;DHT22;55322;48.146;11.516;2023-07-13T09:33:59;17.26;90.15
68378;DHT22;55322;48.146;11.516;2023-07-13T09:36:28;17.29;87.31
68378;DHT22;55322;48.146;11.516;2023-07-13T09:41:51;17.32;85.84
68378;DHT22;55322;48.146;11.516;2023-07-13T09:44:28;17.48;86.83
68378;DHT22;55322;48.146;11.516;2023-07-13T09:46:56;17.68;85.40
68378;DHT22;55322;48.146;11.516;2023-07-13T09:49:26;17.80;83.07
68378;DHT22;55322;48.146;11.516;2023-07-13T09:52:01;18.16;80.27
68378;DHT22;55322;48.146;11.516;2023-07-13T09:54:28;18.37;78.23
68378;DHT22;55322;48.146;11.516;2023-07-13T09:56:55;18.54;79.83
68378;DHT22;55322;48.146;11.516;2023-07-13T09:59:23;18.71;78.01
68378;DHT22;55322;48.146;11.516;2023-07-13T10:01:49;18.98;76.65
68378;DHT22;55322;48.146;11.516;2023-07-13T10:04:19;19.22;71.56
68378;DHT22;55322;48.146;11.516;2023-07-13T10:06:45;19.30;73.89
68378;DHT22;55322;48.146;11.516;2023-07-13T10:09:16;19.35;75.52
68378;DHT22;55322;48.146;11.516;2023-07-13T10:11:42;19.45;69.85
68378;DHT22;55322;48.146;11.516;2023-07-13T10:14:21;19.38;75.40
68378;DHT22;55322;48.146;11.516;2023-07-13T10:16:56;19.36;74.08
68378;DHT22;55322;48.146;11.516;2023-07-13T10:19:29;19.58;72.75
68378;DHT22;55322;48.146;11.516;2023-07-13T10:22:23;19.84;72.90
68378;DHT22;55322;48.146;11.516;2023-07-13T10:24:49;20.10;69.68
68378;DHT22;55322;48.146;11.516;2023-07-13T10:27:21;20.09;69.01
68378;DHT22;55322;48.146;11.516;2023-07-13T10:29:59;20.23;70.52
68378;DHT22;55322;48.146;11.516;2023-07-13T10:32:26;20.23;70.50
68378;DHT22;55322;48.146;11.516;2023-07-13T10:34:51;20.27;68.73
68378;DHT22;55322;48.146;11.516;2023-07-13T10:37:26;20.28;69.24
68378;DHT22;55322;48.146;11.516;2023-07-13T10:39:54;20.17;70.25
68378;DHT22;55322;48.146;11.516;2023-07-13T10:42:27;20.09;69.08
68378;DHT22;55322;48.146;11.516;2023-07-13T10:44:54;20.09;71.59
68378;DHT22;55322;48.146;11.516;2023-07-13T10:47:19;20.38;69.49
68378;DHT22;55322;48.146;11.516;2023-07-13T10:49:46;20.59;69.91
68378;DHT22;55322;48.146;11.516;2023-07-13T10:52:48;20.92;68.86
68378;DHT22;55322;48.146;11.516;2023-07-13T10:58:14;20.96;68.35
68378;DHT22;55322;48.146;11.516;2023-07-13T11:00:46;21.23;65.49
68378;DHT22;55322;48.146;11.516;2023-07-13T11:03:14;21.06;68.19
68378;DHT22;55322;48.146;11.516;2023-07-13T11:05:40;21.06;70.22
68378;DHT22;55322;48.146;11.516;2023-07-13T11:10:53;21.35;68.78
68378;DHT22;55322;48.146;11.516;2023-07-13T11:16:34;21.45;65.59
68378;DHT22;55322;48.146;11.516;2023-07-13T11:21:29;21.42;63.85
68378;DHT22;55322;48.146;11.516;2023-07-13T11:24:15;21.15;60.41
68378;DHT22;55322;48.146;11.516;2023-07-13T11:31:40;21.54;62.12
68378;DHT22;55322;48.146;11.516;2023-07-13T11:34:13;21.97;62.25
68378;DHT22;55322;48.146;11.516;2023-07-13T11:36:43;22.21;64.04
68378;DHT22;55322;48.146;11.516;2023-07-13T11:39:24;22.72;54.78
68378;DHT22;55322;48.146;11.516;2023-07-13T11:41:55;22.92;62.37
68378;DHT22;55322;48.146;11.516;2023-07-13T11:44:24;22.98;59.12
68378;DHT22;55322;48.146;11.516;2023-07-13T11:46:54;22.84;60.32
68378;DHT22;55322;48.146;11.516;2023-07-13T11:49:22;22.69;62.03
68378;DHT22;55322;48.146;11.516;2023-07-13T11:51:48;22.79;57.22
68378;DHT22;55322;48.146;11.516;2023-07-13T11:54:33;22.99;56.77
68378;DHT22;55322;48.146;11.516;2023-07-13T11:57:05;22.94;60.67
68378;DHT22;55322;48.146;11.516;2023-07-13T11:59:32;22.88;58.78
68378;DHT22;55322;48.146;11.516;2023-07-13T12:01:58;23.22;54.55
68378;DHT22;55322;48.146;11.516;2023-07-13T12:04:26;23.07;56.31
68378;DHT22;55322;48.146;11.516;2023-07-13T12:06:58;23.09;54.38
68378;DHT22;55322;48.146;11.516;2023-07-13T12:09:28;22.78;61.81
68378;DHT22;55322;48.146;11.516;2023-07-13T12:11:53;22.62;60.42
68378;DHT22;55322;48.146;11.516;2023-07-13T12:14:19;22.40;60.31
68378;DHT22;55322;48.146;11.516;2023-07-13T12:16:46;22.32;60.69
68378;DHT22;55322;48.146;11.516;2023-07-13T12:19:23;22.37;61.16
68378;DHT22;55322;48.146;11.516;2023-07-13T12:21:53;22.10;61.01
68378;DHT22;55322;48.146;11.516;2023-07-13T12:24:20;21.93;62.49
68378;DHT22;55322;48.146;11.516;2023-07-13T12:27:03;22.15;62.52
68378;DHT22;55322;48.146;11.516;2023-07-13T12:29:31;22.32;61.68
68378;DHT22;55322;48.146;11.516;2023-07-13T12:31:57;22.65;55.79
68378;DHT22;55322;48.146;11.516;2023-07-13T12:34:24;22.81;59.84
68378;DHT22;55322;48.146;11.516;2023-07-13T12:36:53;22.84;59.40
68378;DHT22;55322;48.146;11.516;2023-07-13T12:39:33;22.79;57.13
68378;DHT22;55322;48.146;11.516;2023-07-13T12:42:21;22.68;60.76
68378;DHT22;55322;48.146;11.516;2023-07-13T12:44:49;22.62;59.80
68378;DHT22;55322;48.146;11.516;2023-07-13T12:47:15;22.96;62.42
68378;DHT22;55322;48.146;11.516;2023-07-13T12:49:57;23.27;57.36
68378;DHT22;55322;48.146;11.516;2023-07-13T12:52:34;23.40;57.18
68378;DHT22;55322;48.146;11.516;2023-07-13T12:55:15;23.34;57.93
68378;DHT22;55322;48.146;11.516;2023-07-13T12:57:49;23.31;57.56
68378;DHT22;55322;48.146;11.516;2023-07-13T13:00:36;23.17;57.63
68378;DHT22;55322;48.146;11.516;2023-07-13T13:06:20;23.09;57.67
68378;DHT22;55322;48.146;11.516;2023-07-13T13:08:50;23.10;56.82
68378;DHT22;55322;48.146;11.516;2023-07-13T13:11:16;22.92;56.90
68378;DHT22;55322;48.146;11.516;2023-07-13T13:13:42;22.38;57.35
68378;DHT22;55322;48.146;11.516;2023-07-13T13:16:17;22.42;60.99
68378;DHT22;55322;48.146;11.516;2023-07-13T13:18:44;22.35;53.77
68378;DHT22;55322;48.146;11.516;2023-07-13T13:21:10;22.65;58.27
68378;DHT22;55322;48.146;11.516;2023-07-13T13:23:36;22.75;54.80
68378;DHT22;55322;48.146;11.516;2023-07-13T13:26:01;22.64;57.76
68378;DHT22;55322;48.146;11.516;2023-07-13T13:28:27;22.72;56.85
68378;DHT22;55322;48.146;11.516;2023-07-13T13:30:52;22.78;57.84
68378;DHT22;55322;48.146;11.516;2023-07-13T13:33:21;22.65;60.33
68378;DHT22;55322;48.146;11.516;2023-07-13T13:35:47;22.65;55.33
68378;DHT22;55322;48.146;11.516;2023-07-13T13:38:17;22.73;58.66
68378;DHT22;55322;48.146;11.516;2023-07-13T13:40:45;22.61;58.77
68378;DHT22;55322;48.146;11.516;2023-07-13T13:43:24;22.41;58.16
68378;DHT22;55322;48.146;11.516;2023-07-13T13:45:55;22.17;56.93
68378;DHT22;55322;48.146;11.516;2023-07-13T13:48:41;21.91;60.25
68378;DHT22;55322;48.146;11.516;2023-07-13T13:51:16;22.03;59.24
68378;DHT22;55322;48.146;11.516;2023-07-13T13:53:42;22.05;59.32
68378;DHT22;55322;48.146;11.516;2023-07-13T13:56:08;22.05;58.03
68378;DHT22;55322;48.146;11.516;2023-07-13T13:58:33;21.96;57.11
68378;DHT22;55322;48.146;11.516;2023-07-13T14:00:59;22.08;61.10
68378;DHT22;55322;48.146;11.516;2023-07-13T14:03:25;22.18;59.99
68378;DHT22;55322;48.146;11.516;2023-07-13T14:05:51;22.37;60.94
68378;DHT22;55322;48.146;11.516;2023-07-13T14:08:19;22.44;59.14
68378;DHT22;55322;48.146;11.516;2023-07-13T14:10:46;22.34;59.52
68378;DHT22;55322;48.146;11.516;2023-07-13T14:13:39;22.54;56.76
68378;DHT22;55322;48.146;11.516;2023-07-13T14:16:11;22.78;54.93
68378;DHT22;55322;48.146;11.516;2023-07-13T14:18:37;23.12;58.38
68378;DHT22;55322;48.146;11.516;2023-07-13T14:21:03;23.09;56.09
68378;DHT22;55322;48.146;11.516;2023-07-13T14:23:33;23.15;52.21
68378;DHT22;55322;48.146;11.516;2023-07-13T14:25:58;23.00;55.99
68378;DHT22;55322;48.146;11.516;2023-07-13T14:28:26;23.13;56.58
68378;DHT22;55322;48.146;11.516;2023-07-13T14:30:53;23.36;54.42
68378;DHT22;55322;48.146;11.516;2023-07-13T14:33:20;23.46;54.39
68378;DHT22;55322;48.146;11.516;2023-07-13T14:35:45;23.59;50.67
68378;DHT22;55322;48.146;11.516;2023-07-13T14:38:13;23.45;53.02
68378;DHT22;55322;48.146;11.516;2023-07-13T14:40:40;23.34;54.57
68378;DHT22;55322;48.146;11.516;2023-07-13T14:43:10;23.31;54.70
68378;DHT22;55322;48.146;11.516;2023-07-13T14:45:39;23.24;56.44
68378;DHT22;55322;48.146;11.516;2023-07-13T14:48:13;23.05;56.84
68378;DHT22;55322;48.146;11.516;2023-07-13T14:50:39;22.98;54.21
68378;DHT22;55322;48.146;11.516;2023-07-13T14:53:07;22.86;55.96
68378;DHT22;55322;48.146;11.516;2023-07-13T14:55:33;23.05;52.78
68378;DHT22;55322;48.146;11.516;2023-07-13T14:58:00;23.09;54.22
68378;DHT22;55322;48.146;11.516;2023-07-13T15:00:25;23.09;52.00
68378;DHT22;55322;48.146;11.516;2023-07-13T15:02:54;22.73;54.55
68378;DHT22;55322;48.146;11.516;2023-07-13T15:05:23;22.86;56.33
68378;DHT22;55322;48.146;11.516;2023-07-13T15:07:51;22.98;52.95
68378;DHT22;55322;48.146;11.516;2023-07-13T15:10:27;22.99;53.33
68378;DHT22;55322;48.146;11.516;2023-07-13T15:12:59;22.82;56.50
68378;DHT22;55322;48.146;11.516;2023-07-13T15:15:27;22.92;53.08
68378;DHT22;55322;48.146;11.516;2023-07-13T15:17:53;22.79;53.44
68378;DHT22;55322;48.146;11.516;2023-07-13T15:20:26;22.61;54.31
68378;DHT22;55322;48.146;11.516;2023-07-13T15:22:52;22.48;55.34
68378;DHT22;55322;48.146;11.516;2023-07-13T15:25:24;22.37;58.51
68378;DHT22;55322;48.146;11.516;2023-07-13T15:27:50;22.28;55.25
68378;DHT22;55322;48.146;11.516;2023-07-13T15:30:15;22.21;57.81
68378;DHT22;55322;48.146;11.516;2023-07-13T15:32:44;22.18;56.62
68378;DHT22;55322;48.146;11.516;2023-07-13T15:35:28;22.27;59.63
68378;DHT22;55322;48.146;11.516;2023-07-13T15:37:54;22.34;56.10
68378;DHT22;55322;48.146;11.516;2023-07-13T15:40:19;22.42;56.74
68378;DHT22;55322;48.146;11.516;2023-07-13T15:42:47;22.32;57.32
68378;DHT22;55322;48.146;11.516;2023-07-13T15:45:23;22.38;57.18
68378;DHT22;55322;48.146;11.516;2023-07-13T15:47:50;22.30;55.48
68378;DHT22;55322;48.146;11.516;2023-07-13T15:50:21;22.18;58.39